This is the latest recevied weather packets stored in our database for station/object KD5KNZ-13. If no packets are shown the sender has not sent any weather packets the latest 10 day(s).
| Time | Temp. | Humidity | Pressure | Rain* | Wind** | Luminosity | Snow |
|---|---|---|---|---|---|---|---|
| 1777530643 | 19.44° C | 95% | 1011.7 hPa | 1.78 mm | - | - | - |
| 1777529767 | 19.44° C | 95% | 1012 hPa | 2.03 mm | - | - | - |
| 1777528841 | 18.89° C | 95% | 1013.1 hPa | 2.03 mm | - | - | - |
| 1777526137 | 19.44° C | 95% | 1012.7 hPa | 2.79 mm | - | - | - |
| 1777513552 | 21.11° C | 88% | 1012.7 hPa | 0 mm | - | - | - |
| 1777498244 | 28.89° C | 71% | 1009.8 hPa | 0 mm | - | - | - |
| 1777496442 | 29.44° C | 68% | 1010.4 hPa | 0 mm | - | - | - |
| 1777493745 | 30.56° C | 65% | 1010.6 hPa | 0 mm | - | - | - |
| 1777492843 | 30.56° C | 62% | 1011.1 hPa | 0 mm | - | - | - |
| 1777485654 | 29.44° C | 69% | 1013.6 hPa | 0 mm | - | - | - |
| 1777484747 | 29.44° C | 67% | 1013.9 hPa | 0 mm | - | - | - |
| 1777480246 | 28.89° C | 68% | 1014.5 hPa | 0 mm | - | - | - |
| 1777473964 | 24.44° C | 85% | 1014.8 hPa | 0 mm | - | - | - |
| 1777472147 | 24.44° C | 89% | 1014.7 hPa | 0 mm | - | - | - |
| 1777471251 | 23.89° C | 90% | 1014.6 hPa | 0 mm | - | - | - |
| 1777470345 | 22.78° C | 94% | 1014.4 hPa | 0 mm | - | - | - |
| 1777456843 | 20.56° C | 95% | 1012.9 hPa | 0 mm | - | - | - |
| 1777455064 | 20.56° C | 94% | 1013.1 hPa | 0 mm | - | - | - |
| 1777452342 | 21.11° C | 94% | 1012.9 hPa | 0 mm | - | - | - |
| 1777451461 | 21.11° C | 94% | 1013 hPa | 0 mm | - | - | - |
| 1777447845 | 21.67° C | 93% | 1013.3 hPa | 0 mm | - | - | - |
| 1777446997 | 21.67° C | 93% | 1013.3 hPa | 0 mm | - | - | - |
| 1777444247 | 22.22° C | 92% | 1014.2 hPa | 0 mm | - | - | - |
| 1777442445 | 22.78° C | 91% | 1014.7 hPa | 0 mm | - | - | - |
| 1777439747 | 23.33° C | 89% | 1015.4 hPa | 0 mm | - | - | - |
* Rain latest hour (hover to see other rain measurements)
** Current wind speed in m/s (hover to see current wind gust speed)